sensor_id;sensor_type;location;lat;lon;timestamp;P1;durP1;ratioP1;P2;durP2;ratioP2
50249;SDS011;36133;42.522;27.456;2023-04-06T00:01:27;25.17;;;18.63;;
50249;SDS011;36133;42.522;27.456;2023-04-06T00:03:52;25.38;;;18.60;;
50249;SDS011;36133;42.522;27.456;2023-04-06T00:06:18;25.08;;;18.23;;
50249;SDS011;36133;42.522;27.456;2023-04-06T00:08:43;24.33;;;17.92;;
50249;SDS011;36133;42.522;27.456;2023-04-06T00:11:09;24.02;;;17.83;;
50249;SDS011;36133;42.522;27.456;2023-04-06T00:13:35;23.85;;;18.02;;
50249;SDS011;36133;42.522;27.456;2023-04-06T00:16:01;24.88;;;18.52;;
50249;SDS011;36133;42.522;27.456;2023-04-06T00:18:26;23.45;;;17.52;;
50249;SDS011;36133;42.522;27.456;2023-04-06T00:20:52;24.27;;;18.27;;
50249;SDS011;36133;42.522;27.456;2023-04-06T00:23:17;24.30;;;17.45;;
50249;SDS011;36133;42.522;27.456;2023-04-06T00:25:43;23.02;;;17.27;;
50249;SDS011;36133;42.522;27.456;2023-04-06T00:28:09;25.30;;;18.33;;
50249;SDS011;36133;42.522;27.456;2023-04-06T00:30:35;23.58;;;17.58;;
50249;SDS011;36133;42.522;27.456;2023-04-06T00:33:00;21.33;;;16.00;;
50249;SDS011;36133;42.522;27.456;2023-04-06T00:35:28;22.50;;;16.73;;
50249;SDS011;36133;42.522;27.456;2023-04-06T00:37:54;20.50;;;15.88;;
50249;SDS011;36133;42.522;27.456;2023-04-06T00:40:20;21.60;;;15.20;;
50249;SDS011;36133;42.522;27.456;2023-04-06T00:42:46;21.95;;;16.13;;
50249;SDS011;36133;42.522;27.456;2023-04-06T00:45:11;21.00;;;15.80;;
50249;SDS011;36133;42.522;27.456;2023-04-06T00:47:37;20.30;;;15.88;;
50249;SDS011;36133;42.522;27.456;2023-04-06T00:50:03;20.98;;;15.32;;
50249;SDS011;36133;42.522;27.456;2023-04-06T00:52:29;20.38;;;14.63;;
50249;SDS011;36133;42.522;27.456;2023-04-06T00:54:55;21.58;;;16.00;;
50249;SDS011;36133;42.522;27.456;2023-04-06T00:57:21;22.10;;;16.58;;
50249;SDS011;36133;42.522;27.456;2023-04-06T00:59:47;23.15;;;16.42;;
50249;SDS011;36133;42.522;27.456;2023-04-06T01:02:12;23.00;;;16.40;;
50249;SDS011;36133;42.522;27.456;2023-04-06T01:04:38;20.60;;;15.95;;
50249;SDS011;36133;42.522;27.456;2023-04-06T01:07:04;24.67;;;17.00;;
50249;SDS011;36133;42.522;27.456;2023-04-06T01:09:30;22.60;;;16.88;;
50249;SDS011;36133;42.522;27.456;2023-04-06T01:11:59;23.88;;;17.05;;
50249;SDS011;36133;42.522;27.456;2023-04-06T01:14:25;25.25;;;17.63;;
50249;SDS011;36133;42.522;27.456;2023-04-06T01:16:51;23.95;;;17.65;;
50249;SDS011;36133;42.522;27.456;2023-04-06T01:19:17;22.77;;;16.58;;
50249;SDS011;36133;42.522;27.456;2023-04-06T01:21:43;23.25;;;16.85;;
50249;SDS011;36133;42.522;27.456;2023-04-06T01:24:09;25.98;;;18.63;;
50249;SDS011;36133;42.522;27.456;2023-04-06T01:26:35;25.75;;;17.92;;
50249;SDS011;36133;42.522;27.456;2023-04-06T01:29:02;26.25;;;18.70;;
50249;SDS011;36133;42.522;27.456;2023-04-06T01:31:28;24.58;;;17.92;;
50249;SDS011;36133;42.522;27.456;2023-04-06T01:33:54;26.15;;;18.05;;
50249;SDS011;36133;42.522;27.456;2023-04-06T01:36:20;26.33;;;18.65;;
50249;SDS011;36133;42.522;27.456;2023-04-06T01:38:46;25.95;;;18.73;;
50249;SDS011;36133;42.522;27.456;2023-04-06T01:41:12;24.70;;;18.13;;
50249;SDS011;36133;42.522;27.456;2023-04-06T01:43:38;26.90;;;19.48;;
50249;SDS011;36133;42.522;27.456;2023-04-06T01:46:04;26.08;;;18.73;;
50249;SDS011;36133;42.522;27.456;2023-04-06T01:48:30;26.70;;;19.20;;
50249;SDS011;36133;42.522;27.456;2023-04-06T01:50:57;27.50;;;19.50;;
50249;SDS011;36133;42.522;27.456;2023-04-06T01:53:22;26.17;;;17.75;;
50249;SDS011;36133;42.522;27.456;2023-04-06T01:55:48;26.52;;;19.30;;
50249;SDS011;36133;42.522;27.456;2023-04-06T01:58:14;25.67;;;18.25;;
50249;SDS011;36133;42.522;27.456;2023-04-06T02:00:40;25.30;;;17.70;;
50249;SDS011;36133;42.522;27.456;2023-04-06T02:03:05;25.67;;;18.35;;
50249;SDS011;36133;42.522;27.456;2023-04-06T02:05:32;25.52;;;18.80;;
50249;SDS011;36133;42.522;27.456;2023-04-06T02:08:03;27.05;;;19.42;;
50249;SDS011;36133;42.522;27.456;2023-04-06T02:10:30;29.17;;;19.90;;
50249;SDS011;36133;42.522;27.456;2023-04-06T02:12:56;27.55;;;19.92;;
50249;SDS011;36133;42.522;27.456;2023-04-06T02:15:22;27.02;;;18.88;;
50249;SDS011;36133;42.522;27.456;2023-04-06T02:17:48;29.63;;;19.15;;
50249;SDS011;36133;42.522;27.456;2023-04-06T02:20:13;30.27;;;20.30;;
50249;SDS011;36133;42.522;27.456;2023-04-06T02:22:39;28.33;;;19.85;;
50249;SDS011;36133;42.522;27.456;2023-04-06T02:25:05;28.58;;;19.92;;
50249;SDS011;36133;42.522;27.456;2023-04-06T02:27:31;28.25;;;20.00;;
50249;SDS011;36133;42.522;27.456;2023-04-06T02:29:56;30.52;;;21.42;;
50249;SDS011;36133;42.522;27.456;2023-04-06T02:32:22;29.85;;;20.92;;
50249;SDS011;36133;42.522;27.456;2023-04-06T02:34:47;26.00;;;19.02;;
50249;SDS011;36133;42.522;27.456;2023-04-06T02:37:16;26.02;;;18.08;;
50249;SDS011;36133;42.522;27.456;2023-04-06T02:39:42;28.23;;;19.30;;
50249;SDS011;36133;42.522;27.456;2023-04-06T02:42:07;25.80;;;18.40;;
50249;SDS011;36133;42.522;27.456;2023-04-06T02:44:33;25.30;;;18.55;;
50249;SDS011;36133;42.522;27.456;2023-04-06T02:47:02;25.20;;;17.27;;
50249;SDS011;36133;42.522;27.456;2023-04-06T02:49:28;24.10;;;17.15;;
50249;SDS011;36133;42.522;27.456;2023-04-06T02:51:53;22.10;;;16.13;;
50249;SDS011;36133;42.522;27.456;2023-04-06T02:54:19;25.67;;;17.63;;
50249;SDS011;36133;42.522;27.456;2023-04-06T02:56:44;24.40;;;17.00;;
50249;SDS011;36133;42.522;27.456;2023-04-06T02:59:13;24.10;;;16.23;;
50249;SDS011;36133;42.522;27.456;2023-04-06T03:01:39;22.30;;;16.50;;
50249;SDS011;36133;42.522;27.456;2023-04-06T03:04:04;23.40;;;16.20;;
50249;SDS011;36133;42.522;27.456;2023-04-06T03:06:30;21.75;;;15.50;;
50249;SDS011;36133;42.522;27.456;2023-04-06T03:08:56;22.75;;;16.48;;
50249;SDS011;36133;42.522;27.456;2023-04-06T03:11:22;21.45;;;15.43;;
50249;SDS011;36133;42.522;27.456;2023-04-06T03:13:47;21.02;;;14.70;;
50249;SDS011;36133;42.522;27.456;2023-04-06T03:16:13;21.85;;;16.38;;
50249;SDS011;36133;42.522;27.456;2023-04-06T03:18:38;23.15;;;16.40;;
50249;SDS011;36133;42.522;27.456;2023-04-06T03:21:07;22.02;;;15.60;;
50249;SDS011;36133;42.522;27.456;2023-04-06T03:23:32;22.13;;;15.32;;
50249;SDS011;36133;42.522;27.456;2023-04-06T03:25:58;25.17;;;16.17;;
50249;SDS011;36133;42.522;27.456;2023-04-06T03:28:24;22.58;;;16.08;;
50249;SDS011;36133;42.522;27.456;2023-04-06T03:30:49;25.05;;;17.98;;
50249;SDS011;36133;42.522;27.456;2023-04-06T03:33:17;26.55;;;16.90;;
50249;SDS011;36133;42.522;27.456;2023-04-06T03:35:43;23.58;;;17.08;;
50249;SDS011;36133;42.522;27.456;2023-04-06T03:38:09;21.58;;;15.70;;
50249;SDS011;36133;42.522;27.456;2023-04-06T03:40:34;24.58;;;15.93;;
50249;SDS011;36133;42.522;27.456;2023-04-06T03:43:00;22.35;;;16.27;;
50249;SDS011;36133;42.522;27.456;2023-04-06T03:45:28;22.10;;;15.48;;
50249;SDS011;36133;42.522;27.456;2023-04-06T03:47:54;23.30;;;16.42;;
50249;SDS011;36133;42.522;27.456;2023-04-06T03:50:23;21.23;;;15.45;;
50249;SDS011;36133;42.522;27.456;2023-04-06T03:52:48;21.20;;;15.10;;
50249;SDS011;36133;42.522;27.456;2023-04-06T03:55:17;21.48;;;15.43;;
50249;SDS011;36133;42.522;27.456;2023-04-06T03:57:45;20.73;;;15.10;;
50249;SDS011;36133;42.522;27.456;2023-04-06T04:00:11;19.67;;;14.80;;
50249;SDS011;36133;42.522;27.456;2023-04-06T04:02:37;21.67;;;15.35;;
50249;SDS011;36133;42.522;27.456;2023-04-06T04:05:03;21.60;;;15.15;;
50249;SDS011;36133;42.522;27.456;2023-04-06T04:07:29;21.52;;;15.13;;
50249;SDS011;36133;42.522;27.456;2023-04-06T04:09:55;23.40;;;15.35;;
50249;SDS011;36133;42.522;27.456;2023-04-06T04:12:21;22.05;;;14.18;;
50249;SDS011;36133;42.522;27.456;2023-04-06T04:14:49;18.80;;;13.77;;
50249;SDS011;36133;42.522;27.456;2023-04-06T04:17:15;20.05;;;14.02;;
50249;SDS011;36133;42.522;27.456;2023-04-06T04:19:41;19.20;;;13.88;;
50249;SDS011;36133;42.522;27.456;2023-04-06T04:22:07;20.08;;;14.40;;
50249;SDS011;36133;42.522;27.456;2023-04-06T04:24:32;20.15;;;14.05;;
50249;SDS011;36133;42.522;27.456;2023-04-06T04:26:59;20.83;;;15.02;;
50249;SDS011;36133;42.522;27.456;2023-04-06T04:29:26;20.75;;;14.52;;
50249;SDS011;36133;42.522;27.456;2023-04-06T04:31:51;19.83;;;14.00;;
50249;SDS011;36133;42.522;27.456;2023-04-06T04:34:17;34.85;;;15.38;;
50249;SDS011;36133;42.522;27.456;2023-04-06T04:36:45;23.23;;;15.18;;
50249;SDS011;36133;42.522;27.456;2023-04-06T04:39:11;21.08;;;14.80;;
50249;SDS011;36133;42.522;27.456;2023-04-06T04:41:37;21.05;;;14.35;;
50249;SDS011;36133;42.522;27.456;2023-04-06T04:44:03;20.08;;;15.43;;
50249;SDS011;36133;42.522;27.456;2023-04-06T04:46:29;20.23;;;14.75;;
50249;SDS011;36133;42.522;27.456;2023-04-06T04:48:55;24.83;;;14.45;;
50249;SDS011;36133;42.522;27.456;2023-04-06T04:51:23;22.13;;;14.10;;
50249;SDS011;36133;42.522;27.456;2023-04-06T04:53:49;18.20;;;13.10;;
50249;SDS011;36133;42.522;27.456;2023-04-06T04:56:15;20.20;;;14.68;;
50249;SDS011;36133;42.522;27.456;2023-04-06T04:58:41;21.48;;;14.23;;
50249;SDS011;36133;42.522;27.456;2023-04-06T05:01:07;17.70;;;12.90;;
50249;SDS011;36133;42.522;27.456;2023-04-06T05:03:33;23.65;;;14.15;;
50249;SDS011;36133;42.522;27.456;2023-04-06T05:05:58;21.83;;;14.55;;
50249;SDS011;36133;42.522;27.456;2023-04-06T05:08:24;21.48;;;14.93;;
50249;SDS011;36133;42.522;27.456;2023-04-06T05:10:50;23.70;;;15.73;;
50249;SDS011;36133;42.522;27.456;2023-04-06T05:13:19;25.45;;;16.05;;
50249;SDS011;36133;42.522;27.456;2023-04-06T05:15:44;21.65;;;16.48;;
50249;SDS011;36133;42.522;27.456;2023-04-06T05:18:10;32.05;;;17.25;;
50249;SDS011;36133;42.522;27.456;2023-04-06T05:20:38;25.60;;;17.55;;
50249;SDS011;36133;42.522;27.456;2023-04-06T05:23:04;37.92;;;19.92;;
50249;SDS011;36133;42.522;27.456;2023-04-06T05:25:30;34.85;;;21.20;;
50249;SDS011;36133;42.522;27.456;2023-04-06T05:27:56;31.90;;;19.83;;
50249;SDS011;36133;42.522;27.456;2023-04-06T05:30:22;32.72;;;20.73;;
50249;SDS011;36133;42.522;27.456;2023-04-06T05:32:48;34.47;;;20.23;;
50249;SDS011;36133;42.522;27.456;2023-04-06T05:35:15;32.45;;;20.10;;
50249;SDS011;36133;42.522;27.456;2023-04-06T05:37:42;32.50;;;19.63;;
50249;SDS011;36133;42.522;27.456;2023-04-06T05:40:08;30.35;;;20.02;;
50249;SDS011;36133;42.522;27.456;2023-04-06T05:42:38;30.33;;;18.25;;
50249;SDS011;36133;42.522;27.456;2023-04-06T05:45:05;31.05;;;20.05;;
50249;SDS011;36133;42.522;27.456;2023-04-06T05:47:31;29.73;;;20.23;;
50249;SDS011;36133;42.522;27.456;2023-04-06T05:49:57;34.58;;;20.15;;
50249;SDS011;36133;42.522;27.456;2023-04-06T05:52:23;32.58;;;20.70;;
50249;SDS011;36133;42.522;27.456;2023-04-06T05:54:50;30.67;;;19.58;;
50249;SDS011;36133;42.522;27.456;2023-04-06T05:57:16;34.20;;;21.13;;
50249;SDS011;36133;42.522;27.456;2023-04-06T05:59:44;35.78;;;20.45;;
50249;SDS011;36133;42.522;27.456;2023-04-06T06:02:10;28.48;;;19.48;;
50249;SDS011;36133;42.522;27.456;2023-04-06T06:04:39;35.92;;;18.75;;
50249;SDS011;36133;42.522;27.456;2023-04-06T06:07:08;25.70;;;18.17;;
50249;SDS011;36133;42.522;27.456;2023-04-06T06:09:33;35.97;;;19.52;;
50249;SDS011;36133;42.522;27.456;2023-04-06T06:11:59;32.53;;;17.33;;
50249;SDS011;36133;42.522;27.456;2023-04-06T06:14:28;31.92;;;18.40;;
50249;SDS011;36133;42.522;27.456;2023-04-06T06:16:57;31.45;;;19.20;;
50249;SDS011;36133;42.522;27.456;2023-04-06T06:19:28;28.77;;;17.20;;
50249;SDS011;36133;42.522;27.456;2023-04-06T06:21:59;33.63;;;17.63;;
50249;SDS011;36133;42.522;27.456;2023-04-06T06:24:36;26.27;;;17.00;;
50249;SDS011;36133;42.522;27.456;2023-04-06T06:27:02;28.00;;;17.98;;
50249;SDS011;36133;42.522;27.456;2023-04-06T06:29:54;28.52;;;17.67;;
50249;SDS011;36133;42.522;27.456;2023-04-06T06:32:20;24.63;;;16.13;;
50249;SDS011;36133;42.522;27.456;2023-04-06T06:34:59;31.30;;;18.73;;
50249;SDS011;36133;42.522;27.456;2023-04-06T06:37:34;27.13;;;16.27;;
50249;SDS011;36133;42.522;27.456;2023-04-06T06:42:57;23.20;;;13.85;;
50249;SDS011;36133;42.522;27.456;2023-04-06T06:45:29;26.20;;;16.17;;
50249;SDS011;36133;42.522;27.456;2023-04-06T06:47:58;23.23;;;15.35;;
50249;SDS011;36133;42.522;27.456;2023-04-06T06:50:36;25.90;;;15.23;;
50249;SDS011;36133;42.522;27.456;2023-04-06T06:53:04;22.98;;;14.05;;
50249;SDS011;36133;42.522;27.456;2023-04-06T06:55:34;22.42;;;13.63;;
50249;SDS011;36133;42.522;27.456;2023-04-06T06:58:44;20.13;;;14.50;;
50249;SDS011;36133;42.522;27.456;2023-04-06T07:01:12;23.58;;;14.95;;
50249;SDS011;36133;42.522;27.456;2023-04-06T07:03:38;25.45;;;17.98;;
50249;SDS011;36133;42.522;27.456;2023-04-06T07:06:29;28.25;;;19.10;;
50249;SDS011;36133;42.522;27.456;2023-04-06T07:08:55;44.17;;;25.38;;
50249;SDS011;36133;42.522;27.456;2023-04-06T07:11:58;41.70;;;28.88;;
50249;SDS011;36133;42.522;27.456;2023-04-06T07:14:31;46.78;;;29.65;;
50249;SDS011;36133;42.522;27.456;2023-04-06T07:17:26;48.42;;;26.13;;
50249;SDS011;36133;42.522;27.456;2023-04-06T07:19:52;34.63;;;22.55;;
50249;SDS011;36133;42.522;27.456;2023-04-06T07:22:18;28.40;;;20.10;;
50249;SDS011;36133;42.522;27.456;2023-04-06T07:24:43;23.83;;;16.85;;
50249;SDS011;36133;42.522;27.456;2023-04-06T07:27:09;26.63;;;18.50;;
50249;SDS011;36133;42.522;27.456;2023-04-06T07:29:35;32.15;;;17.63;;
50249;SDS011;36133;42.522;27.456;2023-04-06T07:32:01;23.42;;;17.77;;
50249;SDS011;36133;42.522;27.456;2023-04-06T07:34:27;24.90;;;18.45;;
50249;SDS011;36133;42.522;27.456;2023-04-06T07:36:52;23.60;;;16.70;;
50249;SDS011;36133;42.522;27.456;2023-04-06T07:39:19;22.33;;;15.32;;
50249;SDS011;36133;42.522;27.456;2023-04-06T07:41:48;26.52;;;18.30;;
50249;SDS011;36133;42.522;27.456;2023-04-06T07:44:14;25.08;;;17.40;;
50249;SDS011;36133;42.522;27.456;2023-04-06T07:46:48;27.52;;;17.58;;
50249;SDS011;36133;42.522;27.456;2023-04-06T07:49:29;22.10;;;17.20;;
50249;SDS011;36133;42.522;27.456;2023-04-06T07:51:55;23.67;;;17.73;;
50249;SDS011;36133;42.522;27.456;2023-04-06T07:54:24;20.60;;;16.27;;
50249;SDS011;36133;42.522;27.456;2023-04-06T07:56:53;22.85;;;14.73;;
50249;SDS011;36133;42.522;27.456;2023-04-06T07:59:19;22.35;;;16.05;;
50249;SDS011;36133;42.522;27.456;2023-04-06T08:01:45;24.73;;;15.10;;
50249;SDS011;36133;42.522;27.456;2023-04-06T08:04:26;26.83;;;19.02;;
50249;SDS011;36133;42.522;27.456;2023-04-06T08:06:56;16.55;;;12.43;;
50249;SDS011;36133;42.522;27.456;2023-04-06T08:09:24;27.02;;;18.27;;
50249;SDS011;36133;42.522;27.456;2023-04-06T08:11:50;26.15;;;19.13;;
50249;SDS011;36133;42.522;27.456;2023-04-06T08:14:16;18.75;;;15.30;;
50249;SDS011;36133;42.522;27.456;2023-04-06T08:16:44;23.85;;;15.75;;
50249;SDS011;36133;42.522;27.456;2023-04-06T08:19:14;19.23;;;14.82;;
50249;SDS011;36133;42.522;27.456;2023-04-06T08:21:50;23.30;;;17.42;;
50249;SDS011;36133;42.522;27.456;2023-04-06T08:24:28;23.35;;;17.27;;
50249;SDS011;36133;42.522;27.456;2023-04-06T08:26:54;29.08;;;18.20;;
50249;SDS011;36133;42.522;27.456;2023-04-06T08:29:25;20.33;;;15.07;;
50249;SDS011;36133;42.522;27.456;2023-04-06T08:31:51;16.77;;;13.38;;
50249;SDS011;36133;42.522;27.456;2023-04-06T08:34:17;19.77;;;14.38;;
50249;SDS011;36133;42.522;27.456;2023-04-06T08:36:46;25.42;;;16.42;;
50249;SDS011;36133;42.522;27.456;2023-04-06T08:39:21;30.35;;;18.23;;
50249;SDS011;36133;42.522;27.456;2023-04-06T08:41:58;19.65;;;13.20;;
50249;SDS011;36133;42.522;27.456;2023-04-06T08:44:28;17.25;;;12.60;;
50249;SDS011;36133;42.522;27.456;2023-04-06T08:46:55;13.30;;;9.80;;
50249;SDS011;36133;42.522;27.456;2023-04-06T08:49:24;12.50;;;10.45;;
50249;SDS011;36133;42.522;27.456;2023-04-06T08:51:51;14.05;;;10.07;;
50249;SDS011;36133;42.522;27.456;2023-04-06T08:54:17;10.73;;;9.60;;
50249;SDS011;36133;42.522;27.456;2023-04-06T08:56:42;13.95;;;10.48;;
50249;SDS011;36133;42.522;27.456;2023-04-06T08:59:08;14.85;;;9.45;;
50249;SDS011;36133;42.522;27.456;2023-04-06T09:01:36;9.98;;;8.75;;
50249;SDS011;36133;42.522;27.456;2023-04-06T09:04:08;10.95;;;9.38;;
50249;SDS011;36133;42.522;27.456;2023-04-06T09:06:35;10.27;;;8.10;;
50249;SDS011;36133;42.522;27.456;2023-04-06T09:09:02;10.10;;;8.23;;
50249;SDS011;36133;42.522;27.456;2023-04-06T09:11:28;10.82;;;9.05;;
50249;SDS011;36133;42.522;27.456;2023-04-06T09:13:54;9.25;;;7.40;;
50249;SDS011;36133;42.522;27.456;2023-04-06T09:16:23;7.88;;;7.05;;
50249;SDS011;36133;42.522;27.456;2023-04-06T09:18:53;9.82;;;8.48;;
50249;SDS011;36133;42.522;27.456;2023-04-06T09:21:19;10.82;;;8.65;;
50249;SDS011;36133;42.522;27.456;2023-04-06T09:23:45;10.98;;;8.80;;
50249;SDS011;36133;42.522;27.456;2023-04-06T09:26:16;8.55;;;7.75;;
50249;SDS011;36133;42.522;27.456;2023-04-06T09:31:31;9.75;;;8.75;;
50249;SDS011;36133;42.522;27.456;2023-04-06T09:34:01;12.32;;;8.95;;
50249;SDS011;36133;42.522;27.456;2023-04-06T09:36:31;10.73;;;8.90;;
50249;SDS011;36133;42.522;27.456;2023-04-06T09:38:59;11.43;;;10.10;;
50249;SDS011;36133;42.522;27.456;2023-04-06T09:41:36;11.02;;;9.30;;
50249;SDS011;36133;42.522;27.456;2023-04-06T09:46:34;9.23;;;8.32;;
50249;SDS011;36133;42.522;27.456;2023-04-06T09:49:03;11.85;;;9.15;;
50249;SDS011;36133;42.522;27.456;2023-04-06T09:51:39;10.75;;;8.95;;
50249;SDS011;36133;42.522;27.456;2023-04-06T09:54:20;12.10;;;9.85;;
50249;SDS011;36133;42.522;27.456;2023-04-06T10:05:33;12.38;;;10.13;;
50249;SDS011;36133;42.522;27.456;2023-04-06T10:08:04;13.53;;;11.20;;
50249;SDS011;36133;42.522;27.456;2023-04-06T10:10:38;10.95;;;9.50;;
50249;SDS011;36133;42.522;27.456;2023-04-06T10:13:04;9.85;;;8.85;;
50249;SDS011;36133;42.522;27.456;2023-04-06T10:15:35;10.15;;;9.05;;
50249;SDS011;36133;42.522;27.456;2023-04-06T10:18:23;10.45;;;9.35;;
50249;SDS011;36133;42.522;27.456;2023-04-06T10:26:31;15.20;;;9.27;;
50249;SDS011;36133;42.522;27.456;2023-04-06T10:29:02;10.15;;;8.70;;
50249;SDS011;36133;42.522;27.456;2023-04-06T10:31:29;16.02;;;10.50;;
50249;SDS011;36133;42.522;27.456;2023-04-06T10:33:59;13.68;;;10.35;;
50249;SDS011;36133;42.522;27.456;2023-04-06T10:36:32;14.88;;;10.43;;
50249;SDS011;36133;42.522;27.456;2023-04-06T10:39:24;12.38;;;8.20;;
50249;SDS011;36133;42.522;27.456;2023-04-06T10:47:29;12.05;;;9.80;;
50249;SDS011;36133;42.522;27.456;2023-04-06T10:50:11;11.02;;;9.30;;
50249;SDS011;36133;42.522;27.456;2023-04-06T10:52:45;11.75;;;9.10;;
50249;SDS011;36133;42.522;27.456;2023-04-06T10:55:27;8.88;;;7.38;;
50249;SDS011;36133;42.522;27.456;2023-04-06T10:57:57;9.45;;;8.18;;
50249;SDS011;36133;42.522;27.456;2023-04-06T11:00:25;9.63;;;8.07;;
50249;SDS011;36133;42.522;27.456;2023-04-06T11:02:51;9.27;;;8.00;;
50249;SDS011;36133;42.522;27.456;2023-04-06T11:05:27;8.70;;;7.80;;
50249;SDS011;36133;42.522;27.456;2023-04-06T11:07:59;8.15;;;7.35;;
50249;SDS011;36133;42.522;27.456;2023-04-06T11:10:43;9.23;;;7.75;;
50249;SDS011;36133;42.522;27.456;2023-04-06T11:13:11;8.35;;;7.47;;
50249;SDS011;36133;42.522;27.456;2023-04-06T11:15:37;5.63;;;5.13;;
50249;SDS011;36133;42.522;27.456;2023-04-06T11:18:06;7.70;;;6.38;;
50249;SDS011;36133;42.522;27.456;2023-04-06T11:20:34;8.18;;;6.35;;
50249;SDS011;36133;42.522;27.456;2023-04-06T11:23:00;10.18;;;6.70;;
50249;SDS011;36133;42.522;27.456;2023-04-06T11:25:26;9.95;;;7.40;;
50249;SDS011;36133;42.522;27.456;2023-04-06T11:27:52;7.32;;;6.20;;
50249;SDS011;36133;42.522;27.456;2023-04-06T11:30:18;6.63;;;6.03;;
50249;SDS011;36133;42.522;27.456;2023-04-06T11:32:45;8.07;;;6.03;;
50249;SDS011;36133;42.522;27.456;2023-04-06T11:35:22;6.40;;;5.68;;
50249;SDS011;36133;42.522;27.456;2023-04-06T11:37:50;8.30;;;5.82;;
50249;SDS011;36133;42.522;27.456;2023-04-06T11:40:22;5.55;;;5.00;;
50249;SDS011;36133;42.522;27.456;2023-04-06T11:42:52;6.20;;;5.60;;
50249;SDS011;36133;42.522;27.456;2023-04-06T11:45:21;7.28;;;6.50;;
50249;SDS011;36133;42.522;27.456;2023-04-06T11:47:57;9.25;;;6.25;;
50249;SDS011;36133;42.522;27.456;2023-04-06T11:50:24;6.07;;;5.07;;
50249;SDS011;36133;42.522;27.456;2023-04-06T11:52:59;10.00;;;6.35;;
50249;SDS011;36133;42.522;27.456;2023-04-06T11:55:26;5.35;;;4.85;;
50249;SDS011;36133;42.522;27.456;2023-04-06T11:58:05;5.93;;;5.32;;
50249;SDS011;36133;42.522;27.456;2023-04-06T12:00:32;7.25;;;5.55;;
50249;SDS011;36133;42.522;27.456;2023-04-06T12:03:06;10.32;;;5.70;;
50249;SDS011;36133;42.522;27.456;2023-04-06T12:08:00;4.93;;;4.43;;
50249;SDS011;36133;42.522;27.456;2023-04-06T12:10:26;5.00;;;4.50;;
50249;SDS011;36133;42.522;27.456;2023-04-06T12:12:51;4.82;;;4.35;;
50249;SDS011;36133;42.522;27.456;2023-04-06T12:15:26;6.25;;;5.30;;
50249;SDS011;36133;42.522;27.456;2023-04-06T12:17:52;8.32;;;5.80;;
50249;SDS011;36133;42.522;27.456;2023-04-06T12:20:20;8.23;;;6.20;;
50249;SDS011;36133;42.522;27.456;2023-04-06T12:22:52;17.23;;;6.10;;
50249;SDS011;36133;42.522;27.456;2023-04-06T12:25:27;7.18;;;5.50;;
50249;SDS011;36133;42.522;27.456;2023-04-06T12:27:53;8.75;;;5.90;;
50249;SDS011;36133;42.522;27.456;2023-04-06T12:30:39;6.68;;;5.70;;
50249;SDS011;36133;42.522;27.456;2023-04-06T12:33:19;9.30;;;6.53;;
50249;SDS011;36133;42.522;27.456;2023-04-06T12:35:49;8.52;;;5.93;;
50249;SDS011;36133;42.522;27.456;2023-04-06T12:43:16;6.63;;;5.93;;
50249;SDS011;36133;42.522;27.456;2023-04-06T12:45:47;12.02;;;8.52;;
50249;SDS011;36133;42.522;27.456;2023-04-06T12:48:13;9.07;;;8.18;;
50249;SDS011;36133;42.522;27.456;2023-04-06T12:50:38;11.35;;;9.98;;
50249;SDS011;36133;42.522;27.456;2023-04-06T12:53:07;9.60;;;8.60;;
50249;SDS011;36133;42.522;27.456;2023-04-06T12:55:33;10.93;;;9.13;;
50249;SDS011;36133;42.522;27.456;2023-04-06T12:57:59;9.95;;;8.93;;
50249;SDS011;36133;42.522;27.456;2023-04-06T13:00:25;10.95;;;9.15;;
50249;SDS011;36133;42.522;27.456;2023-04-06T13:02:51;9.82;;;8.82;;
50249;SDS011;36133;42.522;27.456;2023-04-06T13:05:24;11.57;;;9.70;;
50249;SDS011;36133;42.522;27.456;2023-04-06T13:07:50;11.90;;;9.95;;
50249;SDS011;36133;42.522;27.456;2023-04-06T13:10:17;12.93;;;11.52;;
50249;SDS011;36133;42.522;27.456;2023-04-06T13:12:43;13.48;;;11.70;;
50249;SDS011;36133;42.522;27.456;2023-04-06T13:15:16;14.98;;;12.85;;
50249;SDS011;36133;42.522;27.456;2023-04-06T13:17:42;13.63;;;11.57;;
50249;SDS011;36133;42.522;27.456;2023-04-06T13:20:08;12.57;;;10.60;;
50249;SDS011;36133;42.522;27.456;2023-04-06T13:22:34;14.60;;;10.20;;
50249;SDS011;36133;42.522;27.456;2023-04-06T13:25:00;13.95;;;9.27;;
50249;SDS011;36133;42.522;27.456;2023-04-06T13:27:28;14.48;;;10.80;;
50249;SDS011;36133;42.522;27.456;2023-04-06T13:29:59;14.27;;;11.02;;
50249;SDS011;36133;42.522;27.456;2023-04-06T13:32:28;16.65;;;12.85;;
50249;SDS011;36133;42.522;27.456;2023-04-06T13:38:00;15.75;;;11.90;;
50249;SDS011;36133;42.522;27.456;2023-04-06T13:40:26;17.73;;;12.23;;
50249;SDS011;36133;42.522;27.456;2023-04-06T13:42:57;14.38;;;11.80;;
50249;SDS011;36133;42.522;27.456;2023-04-06T13:45:53;14.73;;;11.60;;
50249;SDS011;36133;42.522;27.456;2023-04-06T13:48:31;17.33;;;12.00;;
50249;SDS011;36133;42.522;27.456;2023-04-06T13:50:57;16.25;;;11.93;;
50249;SDS011;36133;42.522;27.456;2023-04-06T13:53:46;15.48;;;11.30;;
50249;SDS011;36133;42.522;27.456;2023-04-06T13:56:12;14.60;;;11.48;;
50249;SDS011;36133;42.522;27.456;2023-04-06T13:58:40;13.68;;;10.80;;
50249;SDS011;36133;42.522;27.456;2023-04-06T14:01:06;18.05;;;11.45;;
50249;SDS011;36133;42.522;27.456;2023-04-06T14:03:41;13.02;;;10.40;;
50249;SDS011;36133;42.522;27.456;2023-04-06T14:06:23;13.48;;;10.88;;
50249;SDS011;36133;42.522;27.456;2023-04-06T14:09:03;17.37;;;11.70;;
50249;SDS011;36133;42.522;27.456;2023-04-06T14:11:37;18.95;;;12.70;;
50249;SDS011;36133;42.522;27.456;2023-04-06T14:17:41;19.77;;;14.00;;
50249;SDS011;36133;42.522;27.456;2023-04-06T14:20:12;15.73;;;12.40;;
50249;SDS011;36133;42.522;27.456;2023-04-06T14:22:42;16.52;;;11.95;;
50249;SDS011;36133;42.522;27.456;2023-04-06T14:25:08;16.45;;;12.50;;
50249;SDS011;36133;42.522;27.456;2023-04-06T14:27:42;15.98;;;12.20;;
50249;SDS011;36133;42.522;27.456;2023-04-06T14:30:08;18.60;;;13.40;;
50249;SDS011;36133;42.522;27.456;2023-04-06T14:35:47;21.02;;;15.75;;
50249;SDS011;36133;42.522;27.456;2023-04-06T14:38:25;18.95;;;15.02;;
50249;SDS011;36133;42.522;27.456;2023-04-06T14:41:02;20.90;;;15.23;;
50249;SDS011;36133;42.522;27.456;2023-04-06T14:43:31;25.42;;;15.88;;
50249;SDS011;36133;42.522;27.456;2023-04-06T14:46:00;20.15;;;15.02;;
50249;SDS011;36133;42.522;27.456;2023-04-06T14:48:27;25.83;;;15.95;;
50249;SDS011;36133;42.522;27.456;2023-04-06T14:50:56;23.55;;;14.77;;
50249;SDS011;36133;42.522;27.456;2023-04-06T14:53:34;27.95;;;17.08;;
50249;SDS011;36133;42.522;27.456;2023-04-06T14:56:03;24.95;;;17.20;;
50249;SDS011;36133;42.522;27.456;2023-04-06T14:58:51;23.65;;;16.45;;
50249;SDS011;36133;42.522;27.456;2023-04-06T15:01:25;20.75;;;15.55;;
50249;SDS011;36133;42.522;27.456;2023-04-06T15:04:04;23.15;;;15.68;;
50249;SDS011;36133;42.522;27.456;2023-04-06T15:06:30;21.42;;;15.75;;
50249;SDS011;36133;42.522;27.456;2023-04-06T15:09:08;25.55;;;16.52;;